TimeEDT,TemperatureF,Dew PointF,Humidity,Sea Level PressureIn,VisibilityMPH,Wind Direction,Wind SpeedMPH,Gust SpeedMPH,PrecipitationIn,Events,Conditions,WindDirDegrees,DateUTC
12:54 AM,42.1,34.0,73,30.22,10.0,NW,3.5,-,N/A,,Clear,320,2013-05-14 04:54:00
1:54 AM,42.1,34.0,73,30.22,10.0,Calm,Calm,-,N/A,,Clear,0,2013-05-14 05:54:00
2:54 AM,42.1,35.1,76,30.22,10.0,Calm,Calm,-,N/A,,Clear,0,2013-05-14 06:54:00
3:54 AM,39.9,34.0,79,30.23,10.0,Calm,Calm,-,N/A,,Clear,0,2013-05-14 07:54:00
4:54 AM,37.9,33.1,83,30.23,10.0,Calm,Calm,-,N/A,,Clear,0,2013-05-14 08:54:00
5:54 AM,36.0,32.0,86,30.25,10.0,Calm,Calm,-,N/A,,Clear,0,2013-05-14 09:54:00
6:54 AM,39.0,35.1,86,30.26,10.0,Calm,Calm,-,N/A,,Clear,0,2013-05-14 10:54:00
7:54 AM,44.1,36.0,73,30.25,10.0,Calm,Calm,-,N/A,,Clear,0,2013-05-14 11:54:00
8:54 AM,48.9,35.1,59,30.25,10.0,West,5.8,-,N/A,,Clear,270,2013-05-14 12:54:00
9:54 AM,55.0,35.1,47,30.24,10.0,WSW,5.8,-,N/A,,Clear,250,2013-05-14 13:54:00
10:54 AM,60.1,34.0,38,30.22,10.0,SSW,5.8,-,N/A,,Clear,210,2013-05-14 14:54:00
11:54 AM,64.0,34.0,33,30.19,10.0,SSW,8.1,-,N/A,,Clear,210,2013-05-14 15:54:00
12:54 PM,66.9,34.0,30,30.16,10.0,SSW,9.2,-,N/A,,Clear,200,2013-05-14 16:54:00
1:54 PM,68.0,30.0,24,30.14,10.0,WSW,8.1,-,N/A,,Partly Cloudy,240,2013-05-14 17:54:00
2:54 PM,68.0,32.0,26,30.11,10.0,WSW,11.5,-,N/A,,Mostly Cloudy,250,2013-05-14 18:54:00
3:54 PM,68.0,32.0,26,30.10,10.0,SSW,3.5,-,N/A,,Scattered Clouds,200,2013-05-14 19:54:00
4:54 PM,68.0,33.1,27,30.08,10.0,SSW,5.8,-,N/A,,Mostly Cloudy,210,2013-05-14 20:54:00
5:54 PM,69.1,37.9,32,30.06,10.0,South,10.4,-,N/A,,Partly Cloudy,170,2013-05-14 21:54:00
6:54 PM,68.0,41.0,37,30.05,10.0,SSE,8.1,-,N/A,,Clear,160,2013-05-14 22:54:00
7:54 PM,64.9,42.1,43,30.03,10.0,SSE,6.9,-,N/A,,Clear,150,2013-05-14 23:54:00
8:54 PM,64.9,41.0,42,30.03,10.0,South,11.5,-,N/A,,Clear,170,2013-05-15 00:54:00
9:54 PM,62.1,42.1,48,30.04,10.0,South,8.1,-,N/A,,Clear,170,2013-05-15 01:54:00
10:54 PM,62.1,42.1,48,30.03,10.0,Calm,Calm,-,N/A,,Mostly Cloudy,0,2013-05-15 02:54:00
11:54 PM,59.0,43.0,55,30.03,10.0,Calm,Calm,-,N/A,,Clear,0,2013-05-15 03:54:00